Atlantic - Newfoundland: Past 24 Hour Conditions

 

Ferolle Point

05:30 PM NDT 22 September 2014
This table is a summary of hourly weather conditions for the past 24 hours.
Date / Time
(NDT)
Wind(knots) Conditions Visibility(km) Pressure(kPa) Air tempC) Relative humidity(%) Dew pointC)
22 September 2014
17:30 SW 34 gust 43 N/A N/A 98.7 15 95 14
16:30 SSW 42 gust 48 N/A N/A 98.6 17 94 16
15:30 SSW 30 gust 38 N/A N/A 98.7 18 96 17
14:30 S 34 gust 42 N/A N/A 98.8 18 86 15
13:30 SSE 38 gust 43 N/A N/A 99.0 17 86 15
12:30 SSE 29 gust 36 N/A N/A 99.4 16 93 15
11:30 SSE 27 gust 37 N/A N/A 99.7 16 89 14
10:30 SE 16 gust 21 N/A N/A 100.0 17 94 16
9:30 E 10 N/A N/A 100.3 16 95 15
8:30 E 9 N/A N/A 100.6 16 95 15
7:30 SE 9 N/A N/A 100.8 14 94 13
6:30 SW 6 N/A N/A 100.8 13 92 12
5:30 WSW 7 N/A N/A 100.9 13 92 12
4:30 WSW 15 gust 22 N/A N/A 100.9 14 90 12
3:30 SW 18 gust 24 N/A N/A 100.9 14 91 12
2:30 SW 23 gust 29 N/A N/A 100.9 14 89 12
1:30 SW 24 gust 30 N/A N/A 100.8 14 88 12
0:30 SW 29 gust 34 N/A N/A 100.8 14 88 12
21 September 2014
23:30 SW 30 gust 39 N/A N/A 100.7 15 83 12
22:30 SW 30 gust 36 N/A N/A 100.7 15 84 12
21:30 SW 32 gust 39 N/A N/A 100.7 15 81 12
20:30 SW 27 gust 38 N/A N/A 100.8 15 82 11
19:30 SW 35 gust 41 N/A N/A 100.7 15 82 11
18:30 SSW 34 gust 41 N/A N/A 100.7 14 84 11
17:30 SW 31 gust 40 N/A N/A 100.7 14 86 12
 
Map of Atlantic - Newfoundland marine weather areas Southwestern Grand Banks - 44138 Banquereau - 44139 Tail of the Bank - 44140 Nickerson Bank - 44251 Northeast Burgeo Bank - 44255 Blanc-Sablon Airport Cap Whittle Chevery Natashquan Airport Heath Point Miscou Island Grand Étang Ingonish Beach North Mountain St.Paul Island J.A. Douglas McCurdy Sydney Airport Charlottetown Airport East Point North Cape Argentia Bonavista Burgeo Cape Race Corner Brook Daniel's Harbour Englee Ferolle Point La Scie Port aux Basques Rocky Harbour Sagona Island St. Anthony Airport St. John's Int'l Airport St. Lawrence Stephenville Airport Twillingate Winterland Wreckhouse Cartwright Airport Mary's Harbour Grates Cove Pool's Island Marticot Island Long Pond Îles de la Madeleine Airport
Legend: buoyBuoy land stationLand Station